sensor_id;sensor_type;location;lat;lon;timestamp;P1;durP1;ratioP1;P2;durP2;ratioP2
13238;SDS011;6686;51.292;4.166;2022-08-01T00:00:38;9.70;;;7.07;;
13238;SDS011;6686;51.292;4.166;2022-08-01T00:03:24;8.27;;;6.57;;
13238;SDS011;6686;51.292;4.166;2022-08-01T00:06:10;9.97;;;7.77;;
13238;SDS011;6686;51.292;4.166;2022-08-01T00:08:56;9.87;;;8.47;;
13238;SDS011;6686;51.292;4.166;2022-08-01T00:11:42;11.77;;;8.57;;
13238;SDS011;6686;51.292;4.166;2022-08-01T00:14:28;13.07;;;9.13;;
13238;SDS011;6686;51.292;4.166;2022-08-01T00:17:14;15.20;;;10.17;;
13238;SDS011;6686;51.292;4.166;2022-08-01T00:19:59;14.33;;;10.63;;
13238;SDS011;6686;51.292;4.166;2022-08-01T00:22:45;13.30;;;10.13;;
13238;SDS011;6686;51.292;4.166;2022-08-01T00:25:31;15.60;;;10.53;;
13238;SDS011;6686;51.292;4.166;2022-08-01T00:28:17;15.37;;;10.23;;
13238;SDS011;6686;51.292;4.166;2022-08-01T00:31:03;13.97;;;10.10;;
13238;SDS011;6686;51.292;4.166;2022-08-01T00:33:49;16.80;;;11.53;;
13238;SDS011;6686;51.292;4.166;2022-08-01T00:36:35;13.93;;;12.03;;
13238;SDS011;6686;51.292;4.166;2022-08-01T00:39:21;18.20;;;12.90;;
13238;SDS011;6686;51.292;4.166;2022-08-01T00:42:08;16.47;;;12.83;;
13238;SDS011;6686;51.292;4.166;2022-08-01T00:44:53;16.37;;;13.27;;
13238;SDS011;6686;51.292;4.166;2022-08-01T00:47:38;16.33;;;10.30;;
13238;SDS011;6686;51.292;4.166;2022-08-01T00:50:24;15.03;;;8.97;;
13238;SDS011;6686;51.292;4.166;2022-08-01T00:53:11;13.37;;;7.87;;
13238;SDS011;6686;51.292;4.166;2022-08-01T00:55:56;12.00;;;7.07;;
13238;SDS011;6686;51.292;4.166;2022-08-01T00:58:42;12.27;;;7.10;;
13238;SDS011;6686;51.292;4.166;2022-08-01T01:01:29;9.93;;;6.40;;
13238;SDS011;6686;51.292;4.166;2022-08-01T01:04:15;9.70;;;6.50;;
13238;SDS011;6686;51.292;4.166;2022-08-01T01:10:15;7.87;;;4.73;;
13238;SDS011;6686;51.292;4.166;2022-08-01T01:13:09;6.77;;;4.70;;
13238;SDS011;6686;51.292;4.166;2022-08-01T01:16:00;8.23;;;4.80;;
13238;SDS011;6686;51.292;4.166;2022-08-01T01:18:47;8.43;;;4.80;;
13238;SDS011;6686;51.292;4.166;2022-08-01T01:21:47;9.90;;;4.40;;
13238;SDS011;6686;51.292;4.166;2022-08-01T01:27:44;4.37;;;3.93;;
13238;SDS011;6686;51.292;4.166;2022-08-01T01:30:25;5.43;;;4.00;;
13238;SDS011;6686;51.292;4.166;2022-08-01T01:33:12;7.57;;;3.83;;
13238;SDS011;6686;51.292;4.166;2022-08-01T01:35:59;6.33;;;3.60;;
13238;SDS011;6686;51.292;4.166;2022-08-01T01:38:44;7.37;;;3.83;;
13238;SDS011;6686;51.292;4.166;2022-08-01T01:41:30;5.37;;;3.80;;
13238;SDS011;6686;51.292;4.166;2022-08-01T01:44:16;5.07;;;3.70;;
13238;SDS011;6686;51.292;4.166;2022-08-01T01:47:02;5.03;;;4.20;;
13238;SDS011;6686;51.292;4.166;2022-08-01T01:49:47;4.43;;;3.70;;
13238;SDS011;6686;51.292;4.166;2022-08-01T01:52:34;3.93;;;3.57;;
13238;SDS011;6686;51.292;4.166;2022-08-01T01:55:19;8.17;;;4.27;;
13238;SDS011;6686;51.292;4.166;2022-08-01T01:58:06;7.00;;;4.23;;
13238;SDS011;6686;51.292;4.166;2022-08-01T02:00:51;5.20;;;4.53;;
13238;SDS011;6686;51.292;4.166;2022-08-01T02:03:37;6.93;;;4.80;;
13238;SDS011;6686;51.292;4.166;2022-08-01T02:06:23;5.87;;;4.70;;
13238;SDS011;6686;51.292;4.166;2022-08-01T02:09:09;5.00;;;3.87;;
13238;SDS011;6686;51.292;4.166;2022-08-01T02:11:55;5.17;;;4.30;;
13238;SDS011;6686;51.292;4.166;2022-08-01T02:14:41;5.43;;;4.67;;
13238;SDS011;6686;51.292;4.166;2022-08-01T02:17:27;6.33;;;4.57;;
13238;SDS011;6686;51.292;4.166;2022-08-01T02:20:14;4.40;;;3.93;;
13238;SDS011;6686;51.292;4.166;2022-08-01T02:23:07;6.30;;;4.20;;
13238;SDS011;6686;51.292;4.166;2022-08-01T02:25:52;4.47;;;4.07;;
13238;SDS011;6686;51.292;4.166;2022-08-01T02:28:41;7.77;;;3.97;;
13238;SDS011;6686;51.292;4.166;2022-08-01T02:31:35;6.00;;;3.77;;
13238;SDS011;6686;51.292;4.166;2022-08-01T02:34:19;6.10;;;4.55;;
13238;SDS011;6686;51.292;4.166;2022-08-01T02:37:05;6.03;;;4.40;;
13238;SDS011;6686;51.292;4.166;2022-08-01T02:39:52;3.77;;;3.40;;
13238;SDS011;6686;51.292;4.166;2022-08-01T02:42:38;6.63;;;3.40;;
13238;SDS011;6686;51.292;4.166;2022-08-01T02:45:25;5.97;;;4.00;;
13238;SDS011;6686;51.292;4.166;2022-08-01T02:48:11;5.83;;;3.63;;
13238;SDS011;6686;51.292;4.166;2022-08-01T02:50:57;4.47;;;3.43;;
13238;SDS011;6686;51.292;4.166;2022-08-01T02:53:41;4.87;;;3.40;;
13238;SDS011;6686;51.292;4.166;2022-08-01T02:56:28;5.23;;;3.43;;
13238;SDS011;6686;51.292;4.166;2022-08-01T02:59:14;3.50;;;3.00;;
13238;SDS011;6686;51.292;4.166;2022-08-01T03:01:59;4.97;;;3.30;;
13238;SDS011;6686;51.292;4.166;2022-08-01T03:04:45;7.50;;;3.70;;
13238;SDS011;6686;51.292;4.166;2022-08-01T03:07:31;3.80;;;3.03;;
13238;SDS011;6686;51.292;4.166;2022-08-01T03:10:17;5.40;;;3.20;;
13238;SDS011;6686;51.292;4.166;2022-08-01T03:13:03;5.53;;;2.73;;
13238;SDS011;6686;51.292;4.166;2022-08-01T03:15:49;4.00;;;2.53;;
13238;SDS011;6686;51.292;4.166;2022-08-01T03:18:35;4.17;;;2.93;;
13238;SDS011;6686;51.292;4.166;2022-08-01T03:21:21;4.47;;;2.83;;
13238;SDS011;6686;51.292;4.166;2022-08-01T03:24:07;5.43;;;3.00;;
13238;SDS011;6686;51.292;4.166;2022-08-01T03:26:56;4.83;;;2.50;;
13238;SDS011;6686;51.292;4.166;2022-08-01T03:29:42;5.57;;;3.27;;
13238;SDS011;6686;51.292;4.166;2022-08-01T03:32:28;3.72;;;3.00;;
13238;SDS011;6686;51.292;4.166;2022-08-01T03:35:13;3.80;;;3.17;;
13238;SDS011;6686;51.292;4.166;2022-08-01T03:37:59;5.37;;;3.20;;
13238;SDS011;6686;51.292;4.166;2022-08-01T03:40:56;4.40;;;2.73;;
13238;SDS011;6686;51.292;4.166;2022-08-01T03:43:41;3.03;;;2.73;;
13238;SDS011;6686;51.292;4.166;2022-08-01T03:46:32;3.10;;;2.30;;
13238;SDS011;6686;51.292;4.166;2022-08-01T03:49:14;4.90;;;3.00;;
13238;SDS011;6686;51.292;4.166;2022-08-01T03:52:04;3.83;;;3.10;;
13238;SDS011;6686;51.292;4.166;2022-08-01T03:54:51;3.47;;;2.80;;
13238;SDS011;6686;51.292;4.166;2022-08-01T03:57:37;5.80;;;3.07;;
13238;SDS011;6686;51.292;4.166;2022-08-01T04:00:23;3.40;;;2.93;;
13238;SDS011;6686;51.292;4.166;2022-08-01T04:03:09;4.30;;;3.10;;
13238;SDS011;6686;51.292;4.166;2022-08-01T04:05:55;4.80;;;3.70;;
13238;SDS011;6686;51.292;4.166;2022-08-01T04:08:41;6.87;;;3.80;;
13238;SDS011;6686;51.292;4.166;2022-08-01T04:11:27;4.17;;;3.73;;
13238;SDS011;6686;51.292;4.166;2022-08-01T04:14:14;5.43;;;3.77;;
13238;SDS011;6686;51.292;4.166;2022-08-01T04:16:59;3.70;;;3.30;;
13238;SDS011;6686;51.292;4.166;2022-08-01T04:19:45;4.27;;;3.87;;
13238;SDS011;6686;51.292;4.166;2022-08-01T04:22:31;4.27;;;3.50;;
13238;SDS011;6686;51.292;4.166;2022-08-01T04:25:24;5.82;;;4.12;;
13238;SDS011;6686;51.292;4.166;2022-08-01T04:28:05;4.43;;;3.60;;
13238;SDS011;6686;51.292;4.166;2022-08-01T04:30:53;4.00;;;3.55;;
13238;SDS011;6686;51.292;4.166;2022-08-01T04:33:42;3.27;;;2.97;;
13238;SDS011;6686;51.292;4.166;2022-08-01T04:36:27;3.07;;;2.77;;
13238;SDS011;6686;51.292;4.166;2022-08-01T04:39:13;3.40;;;2.90;;
13238;SDS011;6686;51.292;4.166;2022-08-01T04:41:59;5.20;;;3.00;;
13238;SDS011;6686;51.292;4.166;2022-08-01T04:44:45;3.50;;;2.87;;
13238;SDS011;6686;51.292;4.166;2022-08-01T04:47:31;4.30;;;3.20;;
13238;SDS011;6686;51.292;4.166;2022-08-01T04:50:16;4.07;;;2.80;;
13238;SDS011;6686;51.292;4.166;2022-08-01T04:53:03;3.50;;;2.60;;
13238;SDS011;6686;51.292;4.166;2022-08-01T04:55:48;4.87;;;2.97;;
13238;SDS011;6686;51.292;4.166;2022-08-01T04:58:34;5.53;;;3.08;;
13238;SDS011;6686;51.292;4.166;2022-08-01T05:01:20;2.20;;;2.00;;
13238;SDS011;6686;51.292;4.166;2022-08-01T05:04:09;3.03;;;2.10;;
13238;SDS011;6686;51.292;4.166;2022-08-01T05:06:55;2.80;;;2.07;;
13238;SDS011;6686;51.292;4.166;2022-08-01T05:09:41;3.80;;;1.93;;
13238;SDS011;6686;51.292;4.166;2022-08-01T05:12:27;4.00;;;1.90;;
13238;SDS011;6686;51.292;4.166;2022-08-01T05:15:14;1.80;;;1.70;;
13238;SDS011;6686;51.292;4.166;2022-08-01T05:18:00;2.83;;;1.83;;
13238;SDS011;6686;51.292;4.166;2022-08-01T05:20:46;3.50;;;2.13;;
13238;SDS011;6686;51.292;4.166;2022-08-01T05:23:32;3.67;;;2.67;;
13238;SDS011;6686;51.292;4.166;2022-08-01T05:26:17;5.17;;;1.97;;
13238;SDS011;6686;51.292;4.166;2022-08-01T05:29:03;2.17;;;1.67;;
13238;SDS011;6686;51.292;4.166;2022-08-01T05:31:49;1.70;;;1.60;;
13238;SDS011;6686;51.292;4.166;2022-08-01T05:34:35;1.67;;;1.57;;
13238;SDS011;6686;51.292;4.166;2022-08-01T05:37:20;3.03;;;1.90;;
13238;SDS011;6686;51.292;4.166;2022-08-01T05:40:06;2.20;;;1.67;;
13238;SDS011;6686;51.292;4.166;2022-08-01T05:42:56;2.87;;;1.87;;
13238;SDS011;6686;51.292;4.166;2022-08-01T05:45:41;2.83;;;1.67;;
13238;SDS011;6686;51.292;4.166;2022-08-01T05:48:29;2.80;;;1.43;;
13238;SDS011;6686;51.292;4.166;2022-08-01T05:51:15;1.95;;;1.52;;
13238;SDS011;6686;51.292;4.166;2022-08-01T05:54:01;2.33;;;1.53;;
13238;SDS011;6686;51.292;4.166;2022-08-01T05:56:47;1.67;;;1.30;;
13238;SDS011;6686;51.292;4.166;2022-08-01T05:59:33;1.17;;;1.10;;
13238;SDS011;6686;51.292;4.166;2022-08-01T06:02:22;1.93;;;1.10;;
13238;SDS011;6686;51.292;4.166;2022-08-01T06:05:08;2.30;;;1.20;;
13238;SDS011;6686;51.292;4.166;2022-08-01T06:07:54;3.80;;;1.23;;
13238;SDS011;6686;51.292;4.166;2022-08-01T06:10:40;1.43;;;1.03;;
13238;SDS011;6686;51.292;4.166;2022-08-01T06:13:25;1.03;;;0.83;;
13238;SDS011;6686;51.292;4.166;2022-08-01T06:16:13;0.73;;;0.70;;
13238;SDS011;6686;51.292;4.166;2022-08-01T06:18:59;1.52;;;0.90;;
13238;SDS011;6686;51.292;4.166;2022-08-01T06:21:45;0.70;;;0.50;;
13238;SDS011;6686;51.292;4.166;2022-08-01T06:24:32;0.85;;;0.68;;
13238;SDS011;6686;51.292;4.166;2022-08-01T06:27:18;0.50;;;0.50;;
13238;SDS011;6686;51.292;4.166;2022-08-01T06:30:04;0.98;;;0.73;;
13238;SDS011;6686;51.292;4.166;2022-08-01T06:32:50;0.73;;;0.73;;
13238;SDS011;6686;51.292;4.166;2022-08-01T06:35:36;1.65;;;0.93;;
13238;SDS011;6686;51.292;4.166;2022-08-01T06:38:22;2.20;;;1.00;;
13238;SDS011;6686;51.292;4.166;2022-08-01T06:41:08;0.87;;;0.67;;
13238;SDS011;6686;51.292;4.166;2022-08-01T06:43:56;1.80;;;0.87;;
13238;SDS011;6686;51.292;4.166;2022-08-01T06:46:42;1.20;;;1.00;;
13238;SDS011;6686;51.292;4.166;2022-08-01T06:49:28;0.95;;;0.82;;
13238;SDS011;6686;51.292;4.166;2022-08-01T06:52:17;1.02;;;0.82;;
13238;SDS011;6686;51.292;4.166;2022-08-01T06:55:03;1.55;;;1.15;;
13238;SDS011;6686;51.292;4.166;2022-08-01T06:57:49;1.17;;;0.82;;
13238;SDS011;6686;51.292;4.166;2022-08-01T07:00:37;1.83;;;1.15;;
13238;SDS011;6686;51.292;4.166;2022-08-01T07:03:23;2.12;;;1.15;;
13238;SDS011;6686;51.292;4.166;2022-08-01T07:06:10;0.98;;;0.93;;
13238;SDS011;6686;51.292;4.166;2022-08-01T07:08:55;1.40;;;1.00;;
13238;SDS011;6686;51.292;4.166;2022-08-01T07:11:42;2.62;;;1.25;;
13238;SDS011;6686;51.292;4.166;2022-08-01T07:14:31;1.37;;;1.00;;
13238;SDS011;6686;51.292;4.166;2022-08-01T07:17:17;2.12;;;1.00;;
13238;SDS011;6686;51.292;4.166;2022-08-01T07:20:03;2.33;;;1.30;;
13238;SDS011;6686;51.292;4.166;2022-08-01T07:22:49;3.30;;;1.40;;
13238;SDS011;6686;51.292;4.166;2022-08-01T07:25:35;2.08;;;1.30;;
13238;SDS011;6686;51.292;4.166;2022-08-01T07:28:21;2.10;;;1.40;;
13238;SDS011;6686;51.292;4.166;2022-08-01T07:31:07;2.45;;;1.50;;
13238;SDS011;6686;51.292;4.166;2022-08-01T07:33:53;2.58;;;1.48;;
13238;SDS011;6686;51.292;4.166;2022-08-01T07:36:39;2.70;;;1.42;;
13238;SDS011;6686;51.292;4.166;2022-08-01T07:39:25;2.72;;;1.30;;
13238;SDS011;6686;51.292;4.166;2022-08-01T07:42:11;3.50;;;1.90;;
13238;SDS011;6686;51.292;4.166;2022-08-01T07:44:57;4.33;;;1.80;;
13238;SDS011;6686;51.292;4.166;2022-08-01T07:47:46;4.33;;;2.00;;
13238;SDS011;6686;51.292;4.166;2022-08-01T07:50:33;4.80;;;1.97;;
13238;SDS011;6686;51.292;4.166;2022-08-01T07:53:19;2.93;;;1.43;;
13238;SDS011;6686;51.292;4.166;2022-08-01T07:56:04;4.93;;;1.90;;
13238;SDS011;6686;51.292;4.166;2022-08-01T07:58:50;3.33;;;1.67;;
13238;SDS011;6686;51.292;4.166;2022-08-01T08:01:36;3.90;;;1.80;;
13238;SDS011;6686;51.292;4.166;2022-08-01T08:04:22;5.22;;;2.08;;
13238;SDS011;6686;51.292;4.166;2022-08-01T08:07:08;5.07;;;1.97;;
13238;SDS011;6686;51.292;4.166;2022-08-01T08:09:54;2.43;;;1.57;;
13238;SDS011;6686;51.292;4.166;2022-08-01T08:12:39;4.63;;;2.20;;
13238;SDS011;6686;51.292;4.166;2022-08-01T08:15:25;4.47;;;1.73;;
13238;SDS011;6686;51.292;4.166;2022-08-01T08:18:11;4.23;;;1.80;;
13238;SDS011;6686;51.292;4.166;2022-08-01T08:20:57;5.83;;;1.60;;
13238;SDS011;6686;51.292;4.166;2022-08-01T08:23:44;8.80;;;2.90;;
13238;SDS011;6686;51.292;4.166;2022-08-01T08:26:53;3.77;;;1.70;;
13238;SDS011;6686;51.292;4.166;2022-08-01T08:29:35;2.77;;;1.33;;
13238;SDS011;6686;51.292;4.166;2022-08-01T08:32:21;2.30;;;1.50;;
13238;SDS011;6686;51.292;4.166;2022-08-01T08:35:06;3.03;;;1.55;;
13238;SDS011;6686;51.292;4.166;2022-08-01T08:37:53;2.33;;;1.60;;
13238;SDS011;6686;51.292;4.166;2022-08-01T08:40:38;4.33;;;1.67;;
13238;SDS011;6686;51.292;4.166;2022-08-01T08:43:25;2.50;;;1.30;;
13238;SDS011;6686;51.292;4.166;2022-08-01T08:46:10;2.63;;;1.67;;
13238;SDS011;6686;51.292;4.166;2022-08-01T08:48:56;3.53;;;1.43;;
13238;SDS011;6686;51.292;4.166;2022-08-01T08:51:42;2.57;;;1.60;;
13238;SDS011;6686;51.292;4.166;2022-08-01T08:54:28;3.43;;;1.17;;
13238;SDS011;6686;51.292;4.166;2022-08-01T08:57:13;1.53;;;1.37;;
13238;SDS011;6686;51.292;4.166;2022-08-01T08:59:59;3.83;;;1.50;;
13238;SDS011;6686;51.292;4.166;2022-08-01T09:02:46;3.53;;;1.42;;
13238;SDS011;6686;51.292;4.166;2022-08-01T09:05:31;2.73;;;1.50;;
13238;SDS011;6686;51.292;4.166;2022-08-01T09:08:17;5.30;;;1.50;;
13238;SDS011;6686;51.292;4.166;2022-08-01T09:11:04;2.87;;;1.33;;
13238;SDS011;6686;51.292;4.166;2022-08-01T09:14:06;1.83;;;1.30;;
13238;SDS011;6686;51.292;4.166;2022-08-01T09:19:55;1.95;;;1.23;;
13238;SDS011;6686;51.292;4.166;2022-08-01T09:22:41;3.20;;;1.10;;
13238;SDS011;6686;51.292;4.166;2022-08-01T09:25:27;3.13;;;1.40;;
13238;SDS011;6686;51.292;4.166;2022-08-01T09:28:16;1.40;;;1.30;;
13238;SDS011;6686;51.292;4.166;2022-08-01T09:31:05;1.10;;;1.00;;
13238;SDS011;6686;51.292;4.166;2022-08-01T09:36:47;3.60;;;1.53;;
13238;SDS011;6686;51.292;4.166;2022-08-01T09:39:36;1.97;;;1.20;;
13238;SDS011;6686;51.292;4.166;2022-08-01T09:42:24;2.83;;;1.20;;
13238;SDS011;6686;51.292;4.166;2022-08-01T09:45:10;3.33;;;1.60;;
13238;SDS011;6686;51.292;4.166;2022-08-01T09:47:56;1.45;;;1.35;;
13238;SDS011;6686;51.292;4.166;2022-08-01T09:50:46;3.27;;;1.60;;
13238;SDS011;6686;51.292;4.166;2022-08-01T09:53:47;2.47;;;1.53;;
13238;SDS011;6686;51.292;4.166;2022-08-01T09:56:36;2.00;;;1.67;;
13238;SDS011;6686;51.292;4.166;2022-08-01T09:59:34;2.62;;;1.60;;
13238;SDS011;6686;51.292;4.166;2022-08-01T10:02:12;2.12;;;1.65;;
13238;SDS011;6686;51.292;4.166;2022-08-01T10:04:57;2.77;;;1.60;;
13238;SDS011;6686;51.292;4.166;2022-08-01T10:07:57;3.63;;;1.70;;
13238;SDS011;6686;51.292;4.166;2022-08-01T10:13:56;3.53;;;1.70;;
13238;SDS011;6686;51.292;4.166;2022-08-01T10:16:41;4.00;;;1.83;;
13238;SDS011;6686;51.292;4.166;2022-08-01T10:19:34;3.40;;;1.65;;
13238;SDS011;6686;51.292;4.166;2022-08-01T10:22:21;3.42;;;1.70;;
13238;SDS011;6686;51.292;4.166;2022-08-01T10:25:06;2.13;;;1.60;;
13238;SDS011;6686;51.292;4.166;2022-08-01T10:27:52;3.10;;;1.60;;
13238;SDS011;6686;51.292;4.166;2022-08-01T10:30:41;2.93;;;1.63;;
13238;SDS011;6686;51.292;4.166;2022-08-01T10:33:27;2.13;;;1.53;;
13238;SDS011;6686;51.292;4.166;2022-08-01T10:36:12;3.20;;;1.73;;
13238;SDS011;6686;51.292;4.166;2022-08-01T10:38:59;2.30;;;1.70;;
13238;SDS011;6686;51.292;4.166;2022-08-01T10:41:45;2.43;;;1.40;;
13238;SDS011;6686;51.292;4.166;2022-08-01T10:44:31;2.57;;;1.70;;
13238;SDS011;6686;51.292;4.166;2022-08-01T10:47:23;3.97;;;1.73;;
13238;SDS011;6686;51.292;4.166;2022-08-01T10:53:17;3.63;;;1.57;;
13238;SDS011;6686;51.292;4.166;2022-08-01T10:56:03;2.20;;;1.53;;
13238;SDS011;6686;51.292;4.166;2022-08-01T10:58:48;3.77;;;1.80;;
13238;SDS011;6686;51.292;4.166;2022-08-01T11:01:34;3.17;;;1.50;;
13238;SDS011;6686;51.292;4.166;2022-08-01T11:04:20;2.92;;;1.70;;
13238;SDS011;6686;51.292;4.166;2022-08-01T11:07:06;5.00;;;1.77;;
13238;SDS011;6686;51.292;4.166;2022-08-01T11:10:09;4.53;;;1.67;;
13238;SDS011;6686;51.292;4.166;2022-08-01T11:12:50;2.17;;;1.48;;
13238;SDS011;6686;51.292;4.166;2022-08-01T11:15:36;4.75;;;1.50;;
13238;SDS011;6686;51.292;4.166;2022-08-01T11:18:29;2.25;;;1.70;;
13238;SDS011;6686;51.292;4.166;2022-08-01T11:21:13;2.05;;;1.52;;
13238;SDS011;6686;51.292;4.166;2022-08-01T11:24:00;2.47;;;1.55;;
13238;SDS011;6686;51.292;4.166;2022-08-01T11:27:15;2.08;;;1.40;;
13238;SDS011;6686;51.292;4.166;2022-08-01T11:29:31;2.35;;;1.60;;
13238;SDS011;6686;51.292;4.166;2022-08-01T11:32:24;3.72;;;1.48;;
13238;SDS011;6686;51.292;4.166;2022-08-01T11:35:09;2.35;;;1.60;;
13238;SDS011;6686;51.292;4.166;2022-08-01T11:37:55;2.08;;;1.20;;
13238;SDS011;6686;51.292;4.166;2022-08-01T11:40:41;2.35;;;1.85;;
13238;SDS011;6686;51.292;4.166;2022-08-01T11:43:27;2.30;;;1.50;;
13238;SDS011;6686;51.292;4.166;2022-08-01T11:46:13;3.53;;;2.05;;
13238;SDS011;6686;51.292;4.166;2022-08-01T11:55:27;3.17;;;1.70;;
13238;SDS011;6686;51.292;4.166;2022-08-01T11:58:16;2.08;;;1.33;;
13238;SDS011;6686;51.292;4.166;2022-08-01T12:00:59;1.58;;;1.40;;
13238;SDS011;6686;51.292;4.166;2022-08-01T12:03:51;3.20;;;1.62;;
13238;SDS011;6686;51.292;4.166;2022-08-01T12:06:33;2.15;;;1.42;;
13238;SDS011;6686;51.292;4.166;2022-08-01T12:09:20;4.25;;;1.62;;
13238;SDS011;6686;51.292;4.166;2022-08-01T12:12:05;2.90;;;1.33;;
13238;SDS011;6686;51.292;4.166;2022-08-01T12:14:52;2.58;;;1.50;;
13238;SDS011;6686;51.292;4.166;2022-08-01T12:17:39;2.12;;;1.35;;
13238;SDS011;6686;51.292;4.166;2022-08-01T12:20:31;2.17;;;1.58;;
13238;SDS011;6686;51.292;4.166;2022-08-01T12:23:15;3.37;;;1.40;;
13238;SDS011;6686;51.292;4.166;2022-08-01T12:26:02;3.40;;;2.03;;
13238;SDS011;6686;51.292;4.166;2022-08-01T12:28:47;2.35;;;1.60;;
13238;SDS011;6686;51.292;4.166;2022-08-01T12:31:34;3.10;;;1.58;;
13238;SDS011;6686;51.292;4.166;2022-08-01T12:34:26;3.30;;;1.60;;
13238;SDS011;6686;51.292;4.166;2022-08-01T12:37:18;2.47;;;1.60;;
13238;SDS011;6686;51.292;4.166;2022-08-01T12:43:04;2.40;;;1.58;;
13238;SDS011;6686;51.292;4.166;2022-08-01T12:45:47;5.60;;;1.90;;
13238;SDS011;6686;51.292;4.166;2022-08-01T12:48:32;3.85;;;1.87;;
13238;SDS011;6686;51.292;4.166;2022-08-01T12:51:18;4.47;;;1.80;;
13238;SDS011;6686;51.292;4.166;2022-08-01T12:54:04;3.40;;;1.50;;
13238;SDS011;6686;51.292;4.166;2022-08-01T12:56:51;5.12;;;1.70;;
13238;SDS011;6686;51.292;4.166;2022-08-01T12:59:36;4.15;;;1.70;;
13238;SDS011;6686;51.292;4.166;2022-08-01T13:02:30;3.13;;;1.90;;
13238;SDS011;6686;51.292;4.166;2022-08-01T13:05:08;2.07;;;1.37;;
13238;SDS011;6686;51.292;4.166;2022-08-01T13:07:54;3.23;;;1.77;;
13238;SDS011;6686;51.292;4.166;2022-08-01T13:10:39;3.70;;;1.83;;
13238;SDS011;6686;51.292;4.166;2022-08-01T13:13:34;3.90;;;1.87;;
13238;SDS011;6686;51.292;4.166;2022-08-01T13:16:11;3.20;;;1.67;;
13238;SDS011;6686;51.292;4.166;2022-08-01T13:18:57;2.87;;;1.80;;
13238;SDS011;6686;51.292;4.166;2022-08-01T13:21:53;3.27;;;1.73;;
13238;SDS011;6686;51.292;4.166;2022-08-01T13:24:39;6.33;;;2.13;;
13238;SDS011;6686;51.292;4.166;2022-08-01T13:27:25;3.05;;;1.92;;
13238;SDS011;6686;51.292;4.166;2022-08-01T13:30:11;3.72;;;1.70;;
13238;SDS011;6686;51.292;4.166;2022-08-01T13:32:57;6.20;;;2.27;;
13238;SDS011;6686;51.292;4.166;2022-08-01T13:35:45;3.23;;;2.23;;
13238;SDS011;6686;51.292;4.166;2022-08-01T13:38:31;3.65;;;1.77;;
13238;SDS011;6686;51.292;4.166;2022-08-01T13:41:36;4.28;;;1.92;;
13238;SDS011;6686;51.292;4.166;2022-08-01T13:44:21;4.18;;;1.70;;
13238;SDS011;6686;51.292;4.166;2022-08-01T13:47:08;3.35;;;1.83;;
13238;SDS011;6686;51.292;4.166;2022-08-01T13:49:54;5.23;;;1.90;;
13238;SDS011;6686;51.292;4.166;2022-08-01T13:52:39;4.03;;;1.60;;
13238;SDS011;6686;51.292;4.166;2022-08-01T13:55:25;3.90;;;1.50;;
13238;SDS011;6686;51.292;4.166;2022-08-01T13:58:11;4.17;;;1.60;;
13238;SDS011;6686;51.292;4.166;2022-08-01T14:00:58;3.35;;;1.50;;
13238;SDS011;6686;51.292;4.166;2022-08-01T14:03:53;2.87;;;1.58;;
13238;SDS011;6686;51.292;4.166;2022-08-01T14:06:36;5.30;;;1.33;;
13238;SDS011;6686;51.292;4.166;2022-08-01T14:09:22;3.80;;;1.60;;
13238;SDS011;6686;51.292;4.166;2022-08-01T14:12:08;4.72;;;1.60;;
13238;SDS011;6686;51.292;4.166;2022-08-01T14:14:53;3.05;;;1.70;;
13238;SDS011;6686;51.292;4.166;2022-08-01T14:17:40;2.92;;;1.70;;
13238;SDS011;6686;51.292;4.166;2022-08-01T14:20:26;2.47;;;1.48;;
13238;SDS011;6686;51.292;4.166;2022-08-01T14:23:12;2.92;;;1.80;;
13238;SDS011;6686;51.292;4.166;2022-08-01T14:25:58;2.80;;;1.55;;
13238;SDS011;6686;51.292;4.166;2022-08-01T14:28:43;3.25;;;1.55;;
13238;SDS011;6686;51.292;4.166;2022-08-01T14:31:29;3.45;;;1.17;;
13238;SDS011;6686;51.292;4.166;2022-08-01T14:34:15;2.37;;;1.73;;
13238;SDS011;6686;51.292;4.166;2022-08-01T14:37:01;1.55;;;1.33;;
13238;SDS011;6686;51.292;4.166;2022-08-01T14:39:47;5.18;;;1.65;;
13238;SDS011;6686;51.292;4.166;2022-08-01T14:42:33;2.72;;;1.67;;
13238;SDS011;6686;51.292;4.166;2022-08-01T14:45:19;3.28;;;1.60;;
13238;SDS011;6686;51.292;4.166;2022-08-01T14:48:05;3.95;;;1.83;;
13238;SDS011;6686;51.292;4.166;2022-08-01T14:50:51;4.03;;;1.67;;
13238;SDS011;6686;51.292;4.166;2022-08-01T14:53:37;2.05;;;1.62;;
13238;SDS011;6686;51.292;4.166;2022-08-01T14:56:23;3.25;;;2.05;;
13238;SDS011;6686;51.292;4.166;2022-08-01T14:59:09;3.95;;;1.90;;
13238;SDS011;6686;51.292;4.166;2022-08-01T15:01:55;2.00;;;1.52;;
13238;SDS011;6686;51.292;4.166;2022-08-01T15:04:41;2.87;;;1.95;;
13238;SDS011;6686;51.292;4.166;2022-08-01T15:07:27;3.05;;;1.70;;
13238;SDS011;6686;51.292;4.166;2022-08-01T15:10:13;3.65;;;1.80;;
13238;SDS011;6686;51.292;4.166;2022-08-01T15:12:59;3.17;;;1.73;;
13238;SDS011;6686;51.292;4.166;2022-08-01T15:15:45;2.72;;;1.70;;
13238;SDS011;6686;51.292;4.166;2022-08-01T15:18:31;3.12;;;1.98;;
13238;SDS011;6686;51.292;4.166;2022-08-01T15:21:17;3.80;;;2.00;;
13238;SDS011;6686;51.292;4.166;2022-08-01T15:24:03;4.53;;;1.90;;
13238;SDS011;6686;51.292;4.166;2022-08-01T15:26:49;2.62;;;1.60;;
13238;SDS011;6686;51.292;4.166;2022-08-01T15:29:36;3.37;;;1.62;;
13238;SDS011;6686;51.292;4.166;2022-08-01T15:32:21;2.65;;;1.92;;
13238;SDS011;6686;51.292;4.166;2022-08-01T15:35:07;2.12;;;1.70;;
13238;SDS011;6686;51.292;4.166;2022-08-01T15:37:53;3.37;;;1.75;;
13238;SDS011;6686;51.292;4.166;2022-08-01T15:40:39;5.18;;;2.08;;
13238;SDS011;6686;51.292;4.166;2022-08-01T15:43:26;3.75;;;1.80;;
13238;SDS011;6686;51.292;4.166;2022-08-01T15:46:11;3.28;;;1.70;;
13238;SDS011;6686;51.292;4.166;2022-08-01T15:49:01;3.37;;;1.70;;
13238;SDS011;6686;51.292;4.166;2022-08-01T15:51:47;2.10;;;1.83;;
13238;SDS011;6686;51.292;4.166;2022-08-01T15:54:33;2.70;;;1.85;;
13238;SDS011;6686;51.292;4.166;2022-08-01T15:57:19;2.87;;;1.40;;
13238;SDS011;6686;51.292;4.166;2022-08-01T16:00:04;3.12;;;1.80;;
13238;SDS011;6686;51.292;4.166;2022-08-01T16:02:51;2.62;;;1.55;;
13238;SDS011;6686;51.292;4.166;2022-08-01T16:05:37;3.40;;;1.90;;
13238;SDS011;6686;51.292;4.166;2022-08-01T16:08:23;2.55;;;1.80;;
13238;SDS011;6686;51.292;4.166;2022-08-01T16:11:09;2.33;;;1.50;;
13238;SDS011;6686;51.292;4.166;2022-08-01T16:13:56;2.15;;;1.80;;
13238;SDS011;6686;51.292;4.166;2022-08-01T16:16:42;5.22;;;1.80;;
13238;SDS011;6686;51.292;4.166;2022-08-01T16:19:28;3.80;;;2.00;;
13238;SDS011;6686;51.292;4.166;2022-08-01T16:22:13;2.62;;;1.70;;
13238;SDS011;6686;51.292;4.166;2022-08-01T16:24:59;5.07;;;1.90;;
13238;SDS011;6686;51.292;4.166;2022-08-01T16:27:45;6.12;;;1.90;;
13238;SDS011;6686;51.292;4.166;2022-08-01T16:30:31;2.53;;;1.60;;
13238;SDS011;6686;51.292;4.166;2022-08-01T16:33:17;2.17;;;1.70;;
13238;SDS011;6686;51.292;4.166;2022-08-01T16:36:03;5.37;;;1.67;;
13238;SDS011;6686;51.292;4.166;2022-08-01T16:38:48;3.12;;;1.50;;
13238;SDS011;6686;51.292;4.166;2022-08-01T16:41:35;5.07;;;1.80;;
13238;SDS011;6686;51.292;4.166;2022-08-01T16:44:22;3.97;;;1.90;;
13238;SDS011;6686;51.292;4.166;2022-08-01T16:47:10;5.57;;;1.80;;
13238;SDS011;6686;51.292;4.166;2022-08-01T16:49:56;2.87;;;1.80;;
13238;SDS011;6686;51.292;4.166;2022-08-01T16:52:42;5.28;;;1.95;;
13238;SDS011;6686;51.292;4.166;2022-08-01T16:58:15;2.50;;;1.80;;
13238;SDS011;6686;51.292;4.166;2022-08-01T17:01:01;2.08;;;1.70;;
13238;SDS011;6686;51.292;4.166;2022-08-01T17:03:47;2.22;;;1.70;;
13238;SDS011;6686;51.292;4.166;2022-08-01T17:06:33;2.78;;;1.77;;
13238;SDS011;6686;51.292;4.166;2022-08-01T17:09:19;3.47;;;1.90;;
13238;SDS011;6686;51.292;4.166;2022-08-01T17:12:05;2.95;;;1.52;;
13238;SDS011;6686;51.292;4.166;2022-08-01T17:14:51;2.25;;;1.65;;
13238;SDS011;6686;51.292;4.166;2022-08-01T17:17:37;1.85;;;1.55;;
13238;SDS011;6686;51.292;4.166;2022-08-01T17:20:23;2.08;;;1.45;;
13238;SDS011;6686;51.292;4.166;2022-08-01T17:23:09;3.03;;;1.90;;
13238;SDS011;6686;51.292;4.166;2022-08-01T17:25:54;4.32;;;1.60;;
13238;SDS011;6686;51.292;4.166;2022-08-01T17:28:40;4.40;;;1.60;;